sensor_id;sensor_type;location;lat;lon;timestamp;P1;durP1;ratioP1;P2;durP2;ratioP2
64500;SDS011;50874;24.150;-110.320;2023-04-03T00:01:43;8.98;;;1.77;;
64500;SDS011;50874;24.150;-110.320;2023-04-03T00:04:09;37.30;;;4.78;;
64500;SDS011;50874;24.150;-110.320;2023-04-03T00:06:36;31.88;;;4.55;;
64500;SDS011;50874;24.150;-110.320;2023-04-03T00:09:02;16.25;;;2.60;;
64500;SDS011;50874;24.150;-110.320;2023-04-03T00:11:29;19.10;;;3.20;;
64500;SDS011;50874;24.150;-110.320;2023-04-03T00:13:55;18.25;;;3.15;;
64500;SDS011;50874;24.150;-110.320;2023-04-03T00:16:22;33.03;;;4.90;;
64500;SDS011;50874;24.150;-110.320;2023-04-03T00:18:48;11.48;;;2.60;;
64500;SDS011;50874;24.150;-110.320;2023-04-03T00:21:15;22.70;;;2.58;;
64500;SDS011;50874;24.150;-110.320;2023-04-03T00:23:41;18.80;;;3.80;;
64500;SDS011;50874;24.150;-110.320;2023-04-03T00:26:08;8.45;;;1.90;;
64500;SDS011;50874;24.150;-110.320;2023-04-03T00:28:35;10.73;;;2.35;;
64500;SDS011;50874;24.150;-110.320;2023-04-03T00:31:01;15.50;;;3.35;;
64500;SDS011;50874;24.150;-110.320;2023-04-03T00:33:28;11.75;;;2.45;;
64500;SDS011;50874;24.150;-110.320;2023-04-03T00:35:54;11.40;;;2.45;;
64500;SDS011;50874;24.150;-110.320;2023-04-03T00:38:20;10.68;;;2.33;;
64500;SDS011;50874;24.150;-110.320;2023-04-03T00:40:48;19.58;;;3.28;;
64500;SDS011;50874;24.150;-110.320;2023-04-03T00:43:16;18.15;;;2.80;;
64500;SDS011;50874;24.150;-110.320;2023-04-03T00:45:51;15.40;;;2.15;;
64500;SDS011;50874;24.150;-110.320;2023-04-03T00:48:26;10.07;;;1.85;;
64500;SDS011;50874;24.150;-110.320;2023-04-03T00:50:56;13.50;;;2.35;;
64500;SDS011;50874;24.150;-110.320;2023-04-03T00:53:24;14.65;;;1.95;;
64500;SDS011;50874;24.150;-110.320;2023-04-03T00:55:55;19.40;;;2.97;;
64500;SDS011;50874;24.150;-110.320;2023-04-03T00:58:25;11.70;;;2.40;;
64500;SDS011;50874;24.150;-110.320;2023-04-03T01:01:18;17.63;;;2.17;;
64500;SDS011;50874;24.150;-110.320;2023-04-03T01:03:48;18.17;;;2.03;;
64500;SDS011;50874;24.150;-110.320;2023-04-03T01:06:17;15.70;;;2.17;;
64500;SDS011;50874;24.150;-110.320;2023-04-03T01:08:47;18.20;;;2.95;;
64500;SDS011;50874;24.150;-110.320;2023-04-03T01:11:15;20.75;;;2.97;;
64500;SDS011;50874;24.150;-110.320;2023-04-03T01:13:42;23.88;;;3.45;;
64500;SDS011;50874;24.150;-110.320;2023-04-03T01:16:08;18.88;;;2.80;;
64500;SDS011;50874;24.150;-110.320;2023-04-03T01:18:36;42.42;;;3.47;;
64500;SDS011;50874;24.150;-110.320;2023-04-03T01:26:17;23.65;;;2.70;;
64500;SDS011;50874;24.150;-110.320;2023-04-03T01:28:44;12.57;;;2.50;;
64500;SDS011;50874;24.150;-110.320;2023-04-03T01:33:57;27.58;;;3.92;;
64500;SDS011;50874;24.150;-110.320;2023-04-03T01:36:25;20.35;;;2.67;;
64500;SDS011;50874;24.150;-110.320;2023-04-03T01:38:53;22.75;;;2.95;;
64500;SDS011;50874;24.150;-110.320;2023-04-03T01:41:21;28.15;;;3.90;;
64500;SDS011;50874;24.150;-110.320;2023-04-03T01:43:48;21.48;;;3.88;;
64500;SDS011;50874;24.150;-110.320;2023-04-03T01:46:18;15.77;;;3.60;;
64500;SDS011;50874;24.150;-110.320;2023-04-03T01:48:45;16.02;;;2.53;;
64500;SDS011;50874;24.150;-110.320;2023-04-03T01:51:12;21.48;;;3.15;;
64500;SDS011;50874;24.150;-110.320;2023-04-03T01:53:39;12.68;;;2.83;;
64500;SDS011;50874;24.150;-110.320;2023-04-03T01:56:05;23.65;;;2.92;;
64500;SDS011;50874;24.150;-110.320;2023-04-03T01:58:32;22.38;;;2.42;;
64500;SDS011;50874;24.150;-110.320;2023-04-03T02:00:59;14.27;;;2.63;;
64500;SDS011;50874;24.150;-110.320;2023-04-03T02:03:25;15.30;;;2.30;;
64500;SDS011;50874;24.150;-110.320;2023-04-03T02:05:52;24.08;;;2.33;;
64500;SDS011;50874;24.150;-110.320;2023-04-03T02:08:18;28.35;;;3.22;;
64500;SDS011;50874;24.150;-110.320;2023-04-03T02:10:48;19.15;;;4.20;;
64500;SDS011;50874;24.150;-110.320;2023-04-03T02:13:15;30.55;;;4.60;;
64500;SDS011;50874;24.150;-110.320;2023-04-03T02:15:42;30.55;;;3.80;;
64500;SDS011;50874;24.150;-110.320;2023-04-03T02:18:10;18.38;;;2.67;;
64500;SDS011;50874;24.150;-110.320;2023-04-03T02:20:37;28.42;;;3.17;;
64500;SDS011;50874;24.150;-110.320;2023-04-03T02:23:04;26.50;;;3.08;;
64500;SDS011;50874;24.150;-110.320;2023-04-03T02:25:31;29.35;;;3.63;;
64500;SDS011;50874;24.150;-110.320;2023-04-03T02:27:58;29.10;;;3.78;;
64500;SDS011;50874;24.150;-110.320;2023-04-03T02:30:24;29.90;;;3.85;;
64500;SDS011;50874;24.150;-110.320;2023-04-03T02:32:51;38.95;;;4.70;;
64500;SDS011;50874;24.150;-110.320;2023-04-03T02:35:18;27.70;;;3.80;;
64500;SDS011;50874;24.150;-110.320;2023-04-03T02:37:45;26.67;;;4.28;;
64500;SDS011;50874;24.150;-110.320;2023-04-03T02:40:12;33.83;;;4.47;;
64500;SDS011;50874;24.150;-110.320;2023-04-03T02:42:38;25.60;;;3.40;;
64500;SDS011;50874;24.150;-110.320;2023-04-03T02:45:05;21.08;;;2.95;;
64500;SDS011;50874;24.150;-110.320;2023-04-03T02:47:32;22.50;;;3.95;;
64500;SDS011;50874;24.150;-110.320;2023-04-03T02:49:58;15.63;;;3.45;;
64500;SDS011;50874;24.150;-110.320;2023-04-03T02:52:25;24.33;;;5.28;;
64500;SDS011;50874;24.150;-110.320;2023-04-03T02:54:51;35.63;;;4.28;;
64500;SDS011;50874;24.150;-110.320;2023-04-03T02:57:18;36.80;;;4.15;;
64500;SDS011;50874;24.150;-110.320;2023-04-03T02:59:45;30.33;;;4.22;;
64500;SDS011;50874;24.150;-110.320;2023-04-03T03:02:11;36.20;;;4.22;;
64500;SDS011;50874;24.150;-110.320;2023-04-03T03:04:38;25.95;;;4.90;;
64500;SDS011;50874;24.150;-110.320;2023-04-03T03:07:04;33.55;;;4.28;;
64500;SDS011;50874;24.150;-110.320;2023-04-03T03:09:31;29.67;;;4.13;;
64500;SDS011;50874;24.150;-110.320;2023-04-03T03:11:59;20.65;;;4.00;;
64500;SDS011;50874;24.150;-110.320;2023-04-03T03:14:25;14.35;;;2.65;;
64500;SDS011;50874;24.150;-110.320;2023-04-03T03:16:52;32.78;;;4.25;;
64500;SDS011;50874;24.150;-110.320;2023-04-03T03:19:21;27.40;;;4.10;;
64500;SDS011;50874;24.150;-110.320;2023-04-03T03:21:47;23.25;;;3.65;;
64500;SDS011;50874;24.150;-110.320;2023-04-03T03:24:13;25.17;;;3.90;;
64500;SDS011;50874;24.150;-110.320;2023-04-03T03:26:41;35.58;;;4.05;;
64500;SDS011;50874;24.150;-110.320;2023-04-03T03:29:07;18.30;;;2.25;;
64500;SDS011;50874;24.150;-110.320;2023-04-03T03:31:34;24.30;;;3.22;;
64500;SDS011;50874;24.150;-110.320;2023-04-03T03:34:00;36.53;;;4.55;;
64500;SDS011;50874;24.150;-110.320;2023-04-03T03:36:27;32.35;;;3.22;;
64500;SDS011;50874;24.150;-110.320;2023-04-03T03:38:53;39.83;;;4.80;;
64500;SDS011;50874;24.150;-110.320;2023-04-03T03:41:20;34.00;;;4.32;;
64500;SDS011;50874;24.150;-110.320;2023-04-03T03:43:46;37.88;;;5.15;;
64500;SDS011;50874;24.150;-110.320;2023-04-03T03:46:13;36.92;;;4.97;;
64500;SDS011;50874;24.150;-110.320;2023-04-03T03:48:39;32.17;;;3.75;;
64500;SDS011;50874;24.150;-110.320;2023-04-03T03:51:06;23.35;;;3.38;;
64500;SDS011;50874;24.150;-110.320;2023-04-03T03:53:32;30.65;;;5.22;;
64500;SDS011;50874;24.150;-110.320;2023-04-03T03:55:59;32.25;;;3.80;;
64500;SDS011;50874;24.150;-110.320;2023-04-03T03:58:26;36.42;;;5.03;;
64500;SDS011;50874;24.150;-110.320;2023-04-03T04:00:52;30.05;;;5.43;;
64500;SDS011;50874;24.150;-110.320;2023-04-03T04:03:19;35.97;;;3.78;;
64500;SDS011;50874;24.150;-110.320;2023-04-03T04:05:46;38.60;;;3.90;;
64500;SDS011;50874;24.150;-110.320;2023-04-03T04:08:12;23.52;;;3.90;;
64500;SDS011;50874;24.150;-110.320;2023-04-03T04:10:39;37.83;;;3.63;;
64500;SDS011;50874;24.150;-110.320;2023-04-03T04:13:05;25.80;;;3.70;;
64500;SDS011;50874;24.150;-110.320;2023-04-03T04:15:32;22.83;;;4.30;;
64500;SDS011;50874;24.150;-110.320;2023-04-03T04:17:59;23.65;;;2.95;;
64500;SDS011;50874;24.150;-110.320;2023-04-03T04:20:25;27.48;;;4.28;;
64500;SDS011;50874;24.150;-110.320;2023-04-03T04:22:51;24.77;;;3.50;;
64500;SDS011;50874;24.150;-110.320;2023-04-03T04:25:18;28.40;;;4.13;;
64500;SDS011;50874;24.150;-110.320;2023-04-03T04:27:44;20.92;;;2.90;;
64500;SDS011;50874;24.150;-110.320;2023-04-03T04:30:11;24.98;;;3.28;;
64500;SDS011;50874;24.150;-110.320;2023-04-03T04:32:38;28.40;;;5.15;;
64500;SDS011;50874;24.150;-110.320;2023-04-03T04:35:05;32.20;;;5.00;;
64500;SDS011;50874;24.150;-110.320;2023-04-03T04:37:32;26.40;;;5.05;;
64500;SDS011;50874;24.150;-110.320;2023-04-03T04:39:58;16.48;;;2.78;;
64500;SDS011;50874;24.150;-110.320;2023-04-03T04:42:25;36.17;;;4.00;;
64500;SDS011;50874;24.150;-110.320;2023-04-03T04:44:51;24.38;;;3.50;;
64500;SDS011;50874;24.150;-110.320;2023-04-03T04:47:18;20.05;;;3.45;;
64500;SDS011;50874;24.150;-110.320;2023-04-03T04:49:44;23.15;;;3.63;;
64500;SDS011;50874;24.150;-110.320;2023-04-03T04:52:12;24.08;;;4.63;;
64500;SDS011;50874;24.150;-110.320;2023-04-03T04:54:39;28.02;;;4.03;;
64500;SDS011;50874;24.150;-110.320;2023-04-03T04:57:06;28.27;;;4.13;;
64500;SDS011;50874;24.150;-110.320;2023-04-03T04:59:32;26.27;;;3.75;;
64500;SDS011;50874;24.150;-110.320;2023-04-03T05:01:58;43.80;;;4.40;;
64500;SDS011;50874;24.150;-110.320;2023-04-03T05:04:25;64.95;;;8.32;;
64500;SDS011;50874;24.150;-110.320;2023-04-03T05:06:52;40.80;;;6.65;;
64500;SDS011;50874;24.150;-110.320;2023-04-03T05:09:18;66.88;;;8.20;;
64500;SDS011;50874;24.150;-110.320;2023-04-03T05:11:45;77.20;;;9.63;;
64500;SDS011;50874;24.150;-110.320;2023-04-03T05:14:12;70.85;;;9.50;;
64500;SDS011;50874;24.150;-110.320;2023-04-03T05:16:38;99.45;;;11.65;;
64500;SDS011;50874;24.150;-110.320;2023-04-03T05:19:05;123.80;;;15.43;;
64500;SDS011;50874;24.150;-110.320;2023-04-03T05:21:31;90.22;;;12.73;;
64500;SDS011;50874;24.150;-110.320;2023-04-03T05:23:58;164.88;;;19.33;;
64500;SDS011;50874;24.150;-110.320;2023-04-03T05:26:30;129.55;;;16.45;;
64500;SDS011;50874;24.150;-110.320;2023-04-03T05:28:57;93.55;;;11.43;;
64500;SDS011;50874;24.150;-110.320;2023-04-03T05:31:24;90.55;;;12.60;;
64500;SDS011;50874;24.150;-110.320;2023-04-03T05:33:50;94.05;;;13.73;;
64500;SDS011;50874;24.150;-110.320;2023-04-03T05:36:17;132.93;;;14.15;;
64500;SDS011;50874;24.150;-110.320;2023-04-03T05:38:44;139.88;;;16.98;;
64500;SDS011;50874;24.150;-110.320;2023-04-03T05:41:10;144.10;;;17.83;;
64500;SDS011;50874;24.150;-110.320;2023-04-03T05:43:37;108.05;;;14.35;;
64500;SDS011;50874;24.150;-110.320;2023-04-03T05:46:08;111.70;;;14.07;;
64500;SDS011;50874;24.150;-110.320;2023-04-03T05:48:36;93.43;;;12.15;;
64500;SDS011;50874;24.150;-110.320;2023-04-03T05:51:03;69.70;;;11.00;;
64500;SDS011;50874;24.150;-110.320;2023-04-03T05:53:31;101.35;;;10.32;;
64500;SDS011;50874;24.150;-110.320;2023-04-03T05:56:02;59.15;;;9.05;;
64500;SDS011;50874;24.150;-110.320;2023-04-03T05:58:29;41.22;;;5.72;;
64500;SDS011;50874;24.150;-110.320;2023-04-03T06:00:56;37.75;;;5.13;;
64500;SDS011;50874;24.150;-110.320;2023-04-03T06:03:22;29.40;;;4.00;;
64500;SDS011;50874;24.150;-110.320;2023-04-03T06:05:49;68.22;;;9.02;;
64500;SDS011;50874;24.150;-110.320;2023-04-03T06:08:16;47.45;;;6.78;;
64500;SDS011;50874;24.150;-110.320;2023-04-03T06:10:42;40.72;;;6.88;;
64500;SDS011;50874;24.150;-110.320;2023-04-03T06:13:08;63.13;;;7.97;;
64500;SDS011;50874;24.150;-110.320;2023-04-03T06:15:35;52.33;;;8.23;;
64500;SDS011;50874;24.150;-110.320;2023-04-03T06:18:02;138.45;;;15.38;;
64500;SDS011;50874;24.150;-110.320;2023-04-03T06:20:28;93.30;;;12.00;;
64500;SDS011;50874;24.150;-110.320;2023-04-03T06:22:56;46.30;;;8.57;;
64500;SDS011;50874;24.150;-110.320;2023-04-03T06:25:22;69.32;;;8.98;;
64500;SDS011;50874;24.150;-110.320;2023-04-03T06:27:49;52.40;;;6.60;;
64500;SDS011;50874;24.150;-110.320;2023-04-03T06:30:16;37.92;;;7.20;;
64500;SDS011;50874;24.150;-110.320;2023-04-03T06:32:42;47.92;;;9.25;;
64500;SDS011;50874;24.150;-110.320;2023-04-03T06:35:09;83.85;;;18.95;;
64500;SDS011;50874;24.150;-110.320;2023-04-03T06:37:36;102.65;;;21.48;;
64500;SDS011;50874;24.150;-110.320;2023-04-03T06:40:03;82.80;;;20.70;;
64500;SDS011;50874;24.150;-110.320;2023-04-03T06:42:30;91.85;;;16.55;;
64500;SDS011;50874;24.150;-110.320;2023-04-03T06:44:59;83.18;;;12.80;;
64500;SDS011;50874;24.150;-110.320;2023-04-03T06:47:26;78.15;;;10.45;;
64500;SDS011;50874;24.150;-110.320;2023-04-03T06:49:52;71.05;;;9.27;;
64500;SDS011;50874;24.150;-110.320;2023-04-03T06:52:19;85.07;;;9.90;;
64500;SDS011;50874;24.150;-110.320;2023-04-03T06:54:46;91.72;;;12.65;;
64500;SDS011;50874;24.150;-110.320;2023-04-03T06:57:12;88.78;;;11.82;;
64500;SDS011;50874;24.150;-110.320;2023-04-03T06:59:40;48.47;;;6.32;;
64500;SDS011;50874;24.150;-110.320;2023-04-03T07:02:06;33.22;;;5.05;;
64500;SDS011;50874;24.150;-110.320;2023-04-03T07:04:34;30.00;;;5.35;;
64500;SDS011;50874;24.150;-110.320;2023-04-03T07:07:01;39.58;;;4.72;;
64500;SDS011;50874;24.150;-110.320;2023-04-03T07:09:27;49.20;;;7.43;;
64500;SDS011;50874;24.150;-110.320;2023-04-03T07:11:56;36.58;;;7.35;;
64500;SDS011;50874;24.150;-110.320;2023-04-03T07:14:23;53.00;;;6.38;;
64500;SDS011;50874;24.150;-110.320;2023-04-03T07:16:49;46.15;;;6.80;;
64500;SDS011;50874;24.150;-110.320;2023-04-03T07:19:17;39.45;;;6.95;;
64500;SDS011;50874;24.150;-110.320;2023-04-03T07:21:44;55.80;;;7.30;;
64500;SDS011;50874;24.150;-110.320;2023-04-03T07:24:11;45.08;;;7.25;;
64500;SDS011;50874;24.150;-110.320;2023-04-03T07:26:39;51.35;;;8.77;;
64500;SDS011;50874;24.150;-110.320;2023-04-03T07:29:06;44.85;;;8.65;;
64500;SDS011;50874;24.150;-110.320;2023-04-03T07:31:32;39.70;;;9.55;;
64500;SDS011;50874;24.150;-110.320;2023-04-03T07:33:59;53.67;;;9.60;;
64500;SDS011;50874;24.150;-110.320;2023-04-03T07:36:26;59.20;;;9.70;;
64500;SDS011;50874;24.150;-110.320;2023-04-03T07:38:53;93.47;;;13.93;;
64500;SDS011;50874;24.150;-110.320;2023-04-03T07:41:19;107.05;;;13.27;;
64500;SDS011;50874;24.150;-110.320;2023-04-03T07:43:47;46.45;;;7.60;;
64500;SDS011;50874;24.150;-110.320;2023-04-03T07:46:15;60.08;;;9.07;;
64500;SDS011;50874;24.150;-110.320;2023-04-03T07:48:42;38.50;;;6.32;;
64500;SDS011;50874;24.150;-110.320;2023-04-03T07:51:09;32.28;;;5.00;;
64500;SDS011;50874;24.150;-110.320;2023-04-03T07:53:35;58.40;;;7.05;;
64500;SDS011;50874;24.150;-110.320;2023-04-03T07:56:02;50.35;;;6.60;;
64500;SDS011;50874;24.150;-110.320;2023-04-03T07:58:29;38.10;;;5.90;;
64500;SDS011;50874;24.150;-110.320;2023-04-03T08:00:55;48.08;;;7.05;;
64500;SDS011;50874;24.150;-110.320;2023-04-03T08:03:22;36.03;;;6.55;;
64500;SDS011;50874;24.150;-110.320;2023-04-03T08:05:49;40.92;;;6.50;;
64500;SDS011;50874;24.150;-110.320;2023-04-03T08:08:17;31.17;;;4.43;;
64500;SDS011;50874;24.150;-110.320;2023-04-03T08:10:49;20.35;;;2.97;;
64500;SDS011;50874;24.150;-110.320;2023-04-03T08:13:16;15.13;;;2.65;;
64500;SDS011;50874;24.150;-110.320;2023-04-03T08:15:43;20.98;;;3.42;;
64500;SDS011;50874;24.150;-110.320;2023-04-03T08:18:10;10.57;;;1.65;;
64500;SDS011;50874;24.150;-110.320;2023-04-03T08:20:37;6.93;;;2.22;;
64500;SDS011;50874;24.150;-110.320;2023-04-03T08:23:06;7.57;;;1.52;;
64500;SDS011;50874;24.150;-110.320;2023-04-03T08:25:34;10.40;;;1.55;;
64500;SDS011;50874;24.150;-110.320;2023-04-03T08:28:04;5.65;;;1.38;;
64500;SDS011;50874;24.150;-110.320;2023-04-03T08:30:30;16.20;;;1.63;;
64500;SDS011;50874;24.150;-110.320;2023-04-03T08:32:57;4.18;;;1.85;;
64500;SDS011;50874;24.150;-110.320;2023-04-03T08:35:25;11.18;;;1.73;;
64500;SDS011;50874;24.150;-110.320;2023-04-03T08:37:52;6.95;;;1.50;;
64500;SDS011;50874;24.150;-110.320;2023-04-03T08:40:18;4.93;;;1.30;;
64500;SDS011;50874;24.150;-110.320;2023-04-03T08:46:02;8.80;;;1.60;;
64500;SDS011;50874;24.150;-110.320;2023-04-03T08:48:39;7.57;;;1.40;;
64500;SDS011;50874;24.150;-110.320;2023-04-03T08:51:17;8.38;;;1.13;;
64500;SDS011;50874;24.150;-110.320;2023-04-03T08:54:04;4.70;;;1.20;;
64500;SDS011;50874;24.150;-110.320;2023-04-03T08:56:38;5.72;;;1.05;;
64500;SDS011;50874;24.150;-110.320;2023-04-03T08:59:16;6.55;;;1.35;;
64500;SDS011;50874;24.150;-110.320;2023-04-03T09:01:51;8.02;;;1.10;;
64500;SDS011;50874;24.150;-110.320;2023-04-03T09:04:18;8.82;;;1.42;;
64500;SDS011;50874;24.150;-110.320;2023-04-03T09:06:46;6.88;;;1.35;;
64500;SDS011;50874;24.150;-110.320;2023-04-03T09:20:43;4.63;;;1.70;;
64500;SDS011;50874;24.150;-110.320;2023-04-03T09:23:34;7.10;;;1.45;;
64500;SDS011;50874;24.150;-110.320;2023-04-03T09:26:09;6.32;;;1.27;;
64500;SDS011;50874;24.150;-110.320;2023-04-03T09:28:59;9.05;;;1.00;;
64500;SDS011;50874;24.150;-110.320;2023-04-03T09:31:32;6.78;;;1.42;;
64500;SDS011;50874;24.150;-110.320;2023-04-03T09:34:07;5.72;;;1.20;;
64500;SDS011;50874;24.150;-110.320;2023-04-03T09:36:56;1.80;;;0.80;;
64500;SDS011;50874;24.150;-110.320;2023-04-03T09:39:25;6.97;;;1.30;;
64500;SDS011;50874;24.150;-110.320;2023-04-03T09:44:28;9.48;;;1.52;;
64500;SDS011;50874;24.150;-110.320;2023-04-03T09:46:55;4.40;;;1.48;;
64500;SDS011;50874;24.150;-110.320;2023-04-03T09:49:22;10.77;;;1.42;;
64500;SDS011;50874;24.150;-110.320;2023-04-03T09:51:49;4.63;;;1.55;;
64500;SDS011;50874;24.150;-110.320;2023-04-03T09:56:52;7.95;;;1.25;;
64500;SDS011;50874;24.150;-110.320;2023-04-03T09:59:20;4.65;;;1.40;;
64500;SDS011;50874;24.150;-110.320;2023-04-03T10:01:57;7.25;;;1.38;;
64500;SDS011;50874;24.150;-110.320;2023-04-03T10:04:25;4.90;;;1.00;;
64500;SDS011;50874;24.150;-110.320;2023-04-03T10:07:01;5.70;;;1.17;;
64500;SDS011;50874;24.150;-110.320;2023-04-03T10:09:29;9.35;;;1.45;;
64500;SDS011;50874;24.150;-110.320;2023-04-03T10:14:40;4.90;;;1.25;;
64500;SDS011;50874;24.150;-110.320;2023-04-03T10:23:02;1.95;;;0.85;;
64500;SDS011;50874;24.150;-110.320;2023-04-03T10:28:47;4.03;;;1.10;;
64500;SDS011;50874;24.150;-110.320;2023-04-03T10:34:20;5.15;;;1.30;;
64500;SDS011;50874;24.150;-110.320;2023-04-03T10:40:02;4.07;;;1.38;;
64500;SDS011;50874;24.150;-110.320;2023-04-03T10:42:44;21.80;;;2.28;;
64500;SDS011;50874;24.150;-110.320;2023-04-03T10:45:46;9.75;;;2.33;;
64500;SDS011;50874;24.150;-110.320;2023-04-03T10:48:29;15.73;;;2.42;;
64500;SDS011;50874;24.150;-110.320;2023-04-03T10:56:39;7.10;;;1.80;;
64500;SDS011;50874;24.150;-110.320;2023-04-03T10:59:30;3.38;;;1.20;;
64500;SDS011;50874;24.150;-110.320;2023-04-03T11:04:59;3.17;;;1.23;;
64500;SDS011;50874;24.150;-110.320;2023-04-03T11:07:47;7.97;;;1.25;;
64500;SDS011;50874;24.150;-110.320;2023-04-03T11:10:20;3.50;;;1.05;;
64500;SDS011;50874;24.150;-110.320;2023-04-03T11:12:52;7.25;;;1.50;;
64500;SDS011;50874;24.150;-110.320;2023-04-03T11:15:38;7.55;;;1.85;;
64500;SDS011;50874;24.150;-110.320;2023-04-03T11:18:08;3.28;;;1.10;;
64500;SDS011;50874;24.150;-110.320;2023-04-03T11:20:42;5.40;;;1.27;;
64500;SDS011;50874;24.150;-110.320;2023-04-03T11:23:31;16.17;;;2.08;;
64500;SDS011;50874;24.150;-110.320;2023-04-03T11:26:10;6.57;;;1.55;;
64500;SDS011;50874;24.150;-110.320;2023-04-03T11:28:38;7.15;;;1.58;;
64500;SDS011;50874;24.150;-110.320;2023-04-03T11:36:24;7.47;;;1.50;;
64500;SDS011;50874;24.150;-110.320;2023-04-03T11:39:00;5.75;;;1.45;;
64500;SDS011;50874;24.150;-110.320;2023-04-03T11:41:35;8.20;;;1.48;;
64500;SDS011;50874;24.150;-110.320;2023-04-03T11:44:06;8.13;;;1.48;;
64500;SDS011;50874;24.150;-110.320;2023-04-03T11:46:59;10.55;;;1.70;;
64500;SDS011;50874;24.150;-110.320;2023-04-03T12:05:55;6.57;;;1.73;;
64500;SDS011;50874;24.150;-110.320;2023-04-03T12:16:29;8.32;;;2.05;;
64500;SDS011;50874;24.150;-110.320;2023-04-03T12:18:57;9.50;;;2.17;;
64500;SDS011;50874;24.150;-110.320;2023-04-03T12:43:02;13.60;;;2.40;;
64500;SDS011;50874;24.150;-110.320;2023-04-03T12:45:51;15.15;;;1.88;;
64500;SDS011;50874;24.150;-110.320;2023-04-03T12:48:37;23.13;;;2.03;;
64500;SDS011;50874;24.150;-110.320;2023-04-03T12:51:12;7.00;;;1.80;;
64500;SDS011;50874;24.150;-110.320;2023-04-03T12:53:58;10.45;;;1.67;;
64500;SDS011;50874;24.150;-110.320;2023-04-03T12:56:38;13.57;;;2.45;;
64500;SDS011;50874;24.150;-110.320;2023-04-03T12:59:15;12.15;;;2.00;;
64500;SDS011;50874;24.150;-110.320;2023-04-03T13:01:55;9.90;;;1.65;;
64500;SDS011;50874;24.150;-110.320;2023-04-03T13:04:24;29.15;;;3.38;;
64500;SDS011;50874;24.150;-110.320;2023-04-03T13:06:52;26.50;;;3.83;;
64500;SDS011;50874;24.150;-110.320;2023-04-03T13:09:20;18.08;;;3.35;;
64500;SDS011;50874;24.150;-110.320;2023-04-03T13:12:03;12.68;;;3.10;;
64500;SDS011;50874;24.150;-110.320;2023-04-03T13:14:37;18.50;;;2.97;;
64500;SDS011;50874;24.150;-110.320;2023-04-03T13:17:09;32.72;;;4.28;;
64500;SDS011;50874;24.150;-110.320;2023-04-03T13:19:38;46.58;;;5.75;;
64500;SDS011;50874;24.150;-110.320;2023-04-03T13:25:24;34.45;;;4.03;;
64500;SDS011;50874;24.150;-110.320;2023-04-03T13:27:54;35.13;;;4.65;;
64500;SDS011;50874;24.150;-110.320;2023-04-03T13:30:23;46.60;;;4.13;;
64500;SDS011;50874;24.150;-110.320;2023-04-03T13:33:00;43.30;;;6.32;;
64500;SDS011;50874;24.150;-110.320;2023-04-03T13:38:02;49.80;;;7.60;;
64500;SDS011;50874;24.150;-110.320;2023-04-03T13:40:49;48.45;;;6.45;;
64500;SDS011;50874;24.150;-110.320;2023-04-03T13:43:19;46.92;;;4.85;;
64500;SDS011;50874;24.150;-110.320;2023-04-03T13:46:01;23.67;;;3.53;;
64500;SDS011;50874;24.150;-110.320;2023-04-03T13:48:42;26.75;;;3.00;;
64500;SDS011;50874;24.150;-110.320;2023-04-03T14:01:47;9.75;;;1.85;;
64500;SDS011;50874;24.150;-110.320;2023-04-03T14:04:31;7.65;;;1.20;;
64500;SDS011;50874;24.150;-110.320;2023-04-03T14:07:14;12.32;;;1.65;;
64500;SDS011;50874;24.150;-110.320;2023-04-03T14:09:43;8.38;;;1.50;;
64500;SDS011;50874;24.150;-110.320;2023-04-03T14:12:18;9.30;;;1.88;;
64500;SDS011;50874;24.150;-110.320;2023-04-03T14:14:59;10.23;;;1.92;;
64500;SDS011;50874;24.150;-110.320;2023-04-03T14:17:28;15.90;;;2.20;;
64500;SDS011;50874;24.150;-110.320;2023-04-03T14:19:55;11.10;;;1.80;;
64500;SDS011;50874;24.150;-110.320;2023-04-03T14:24:54;9.50;;;1.73;;
64500;SDS011;50874;24.150;-110.320;2023-04-03T14:27:23;10.07;;;2.00;;
64500;SDS011;50874;24.150;-110.320;2023-04-03T14:30:01;13.52;;;1.77;;
64500;SDS011;50874;24.150;-110.320;2023-04-03T14:32:29;10.65;;;2.47;;
64500;SDS011;50874;24.150;-110.320;2023-04-03T14:34:55;16.45;;;2.78;;
64500;SDS011;50874;24.150;-110.320;2023-04-03T14:37:24;18.35;;;2.35;;
64500;SDS011;50874;24.150;-110.320;2023-04-03T14:39:53;5.03;;;1.23;;
64500;SDS011;50874;24.150;-110.320;2023-04-03T14:42:21;19.60;;;2.08;;
64500;SDS011;50874;24.150;-110.320;2023-04-03T14:44:50;6.63;;;1.40;;
64500;SDS011;50874;24.150;-110.320;2023-04-03T14:47:22;7.00;;;2.45;;
64500;SDS011;50874;24.150;-110.320;2023-04-03T14:49:52;14.52;;;1.80;;
64500;SDS011;50874;24.150;-110.320;2023-04-03T14:52:24;12.35;;;1.85;;
64500;SDS011;50874;24.150;-110.320;2023-04-03T14:54:58;13.82;;;2.85;;
64500;SDS011;50874;24.150;-110.320;2023-04-03T14:57:26;10.95;;;1.85;;
64500;SDS011;50874;24.150;-110.320;2023-04-03T14:59:55;7.80;;;1.70;;
64500;SDS011;50874;24.150;-110.320;2023-04-03T15:02:37;12.65;;;1.95;;
64500;SDS011;50874;24.150;-110.320;2023-04-03T15:05:05;7.28;;;1.77;;
64500;SDS011;50874;24.150;-110.320;2023-04-03T15:07:35;16.02;;;1.90;;
64500;SDS011;50874;24.150;-110.320;2023-04-03T15:10:20;15.32;;;2.50;;
64500;SDS011;50874;24.150;-110.320;2023-04-03T15:12:49;7.38;;;2.08;;
64500;SDS011;50874;24.150;-110.320;2023-04-03T15:15:16;7.90;;;1.60;;
64500;SDS011;50874;24.150;-110.320;2023-04-03T15:17:45;15.82;;;2.25;;
64500;SDS011;50874;24.150;-110.320;2023-04-03T15:20:14;15.32;;;2.53;;
64500;SDS011;50874;24.150;-110.320;2023-04-03T15:22:45;19.13;;;2.30;;
64500;SDS011;50874;24.150;-110.320;2023-04-03T15:25:11;9.10;;;1.90;;
64500;SDS011;50874;24.150;-110.320;2023-04-03T15:27:38;5.13;;;1.73;;
64500;SDS011;50874;24.150;-110.320;2023-04-03T15:30:06;11.27;;;2.10;;
64500;SDS011;50874;24.150;-110.320;2023-04-03T15:32:36;11.73;;;2.08;;
64500;SDS011;50874;24.150;-110.320;2023-04-03T15:35:03;14.75;;;2.53;;
64500;SDS011;50874;24.150;-110.320;2023-04-03T15:37:29;12.95;;;2.50;;
64500;SDS011;50874;24.150;-110.320;2023-04-03T15:39:56;14.25;;;1.90;;
64500;SDS011;50874;24.150;-110.320;2023-04-03T15:42:23;6.18;;;1.90;;
64500;SDS011;50874;24.150;-110.320;2023-04-03T15:44:49;8.93;;;2.03;;
64500;SDS011;50874;24.150;-110.320;2023-04-03T15:47:16;7.75;;;2.10;;
64500;SDS011;50874;24.150;-110.320;2023-04-03T15:49:42;12.77;;;1.85;;
64500;SDS011;50874;24.150;-110.320;2023-04-03T15:52:09;6.03;;;1.70;;
64500;SDS011;50874;24.150;-110.320;2023-04-03T15:54:35;12.70;;;2.30;;
64500;SDS011;50874;24.150;-110.320;2023-04-03T15:57:02;13.30;;;1.75;;
64500;SDS011;50874;24.150;-110.320;2023-04-03T15:59:28;8.98;;;1.60;;
64500;SDS011;50874;24.150;-110.320;2023-04-03T16:01:57;8.57;;;1.65;;
64500;SDS011;50874;24.150;-110.320;2023-04-03T16:04:27;6.63;;;1.52;;
64500;SDS011;50874;24.150;-110.320;2023-04-03T16:06:54;16.52;;;2.17;;
64500;SDS011;50874;24.150;-110.320;2023-04-03T16:09:20;7.15;;;2.00;;
64500;SDS011;50874;24.150;-110.320;2023-04-03T16:11:47;7.35;;;1.73;;
64500;SDS011;50874;24.150;-110.320;2023-04-03T16:14:13;5.50;;;1.63;;
64500;SDS011;50874;24.150;-110.320;2023-04-03T16:16:40;7.28;;;1.30;;